• Join FlightAware (Why Join?)
  • Login
  • US Flag 
10:50PM EST


 

Airport Tracker/Info


-or-


 

Live Flight TrackerFlight Track Log ✈ RPA3228 ✈ 17-Jul-2013 ✈ KDCA - KBUF

Flight Track Log - Related Links

Times and Time Zones

All times are in EDT time to prevent confusion due to time zone crossing. See the RPA3228 flight status page for this flight to view local times or setup timezone preferences in your user account.

Time Position Orientation Groundspeed Altitude Reporting Facility
EDT Latitude Longitude Course Direction KTS MPH feet Rate Location/Type
10:57AM 38.8833 -77.0667 North 162 186 1,700  Level Potomac TRACON
10:58AM 38.9333 -77.1167 322° Northwest 235 270 3,400 2,350 Climbing Potomac TRACON
10:59AM 39.3171 -77.2798 337° Northwest  Level FlightAware Approximate
10:59AM 38.9833 -77.1667 322° Northwest 262 302 6,400  Level Potomac TRACON
11:00AM 39.4765 -77.3715 339° North  Level FlightAware Approximate
11:00AM 39.0000 -77.2667 282° West 275 316 10,000  Level Potomac TRACON
11:01AM 39.6398 -77.4500 North  Level FlightAware Approximate
11:02AM 39.8144 -77.4500 North  Level FlightAware Approximate
11:02AM 39.1247 -77.4136 318° Northwest 293 337 13,800  Level Washington Center
11:03AM 39.2247 -77.4189 358° North 308 354 16,100 1,574 Climbing Washington Center
11:04AM 39.3267 -77.4267 357° North 337 388 17,000 706 Climbing Washington Center
11:05AM 39.4267 -77.4372 355° North 355 409 17,500 864 Climbing Washington Center
11:06AM 39.5306 -77.4453 357° North 361 415 18,700 1,509 Climbing Washington Center
11:08AM 39.7072 -77.4556 357° North 394 453 21,600 1,683 Climbing New York Center
11:09AM 39.8197 -77.4556 360° North 399 459 23,300 1,574 Climbing New York Center
11:10AM 39.9347 -77.4528 North 406 467 24,800 1,373 Climbing New York Center
11:11AM 40.0536 -77.4506 North 411 473 26,000 610 Climbing New York Center
11:12AM 40.1708 -77.4808 349° North 416 479 26,000  Level New York Center
11:13AM 40.2850 -77.5247 344° North 429 494 26,000  Level New York Center
11:14AM 40.3992 -77.5714 343° North 429 494 26,000  Level New York Center
11:15AM 40.5131 -77.6181 343° North 429 494 26,000  Level New York Center
11:16AM 40.6272 -77.6650 343° North 429 494 26,000  Level New York Center
11:18AM 40.8531 -77.7592 342° North 429 494 26,000  Level New York Center
11:19AM 40.9842 -77.8158 342° North 430 495 26,000  Level Cleveland Center
11:20AM 41.1000 -77.8606 344° North 446 513 26,000  Level Cleveland Center
11:21AM 41.2097 -77.9086 342° North 439 505 26,000  Level Cleveland Center
11:22AM 41.3233 -77.9536 343° North 426 490 26,000  Level Cleveland Center
11:23AM 41.4369 -78.0017 342° North 426 490 26,000  Level Cleveland Center
11:24AM 41.5400 -78.0447 343° North 426 490 26,000  Level Cleveland Center
11:25AM 41.6517 -78.0931 342° North 426 490 26,000 -700 Level Cleveland Center
11:26AM 41.7672 -78.1417 343° North 426 490 24,600 -1,785 Descending Cleveland Center
11:27AM 41.8725 -78.1878 342° North 419 482 22,400 -2,168 Descending Cleveland Center
11:28AM 41.9778 -78.2342 342° North 408 470 20,300 -2,050 Descending Cleveland Center
11:29AM 42.0786 -78.2781 342° North 395 455 18,300 -1,934 Descending Cleveland Center
11:30AM 42.1775 -78.3192 343° North 381 438 16,400 -1,916 Descending Cleveland Center
11:31AM 42.2700 -78.3608 342° North 365 420 14,500 -1,850 Descending Cleveland Center
11:32AM 42.3625 -78.3997 343° North 350 403 12,700 -1,785 Descending Cleveland Center
11:33AM 42.4486 -78.4361 343° North 340 391 10,900 -1,361 Descending Cleveland Center
11:34AM 42.5347 -78.4697 344° North 327 376 10,000 -908 Descending Cleveland Center
11:35AM 42.6100 -78.4900 349° North 299 344 9,100 -1,289 Descending Cleveland Center
11:36AM 42.6875 -78.5100 349° North 281 323 7,400 -1,850 Descending Cleveland Center
11:37AM 42.7672 -78.5328 348° North 276 318 5,400 -1,714 Descending Cleveland Center
11:38AM 42.8406 -78.5503 350° North 271 312 4,000 -700 Descending Cleveland Center
11:39AM 42.9153 -78.5364 North 266 306 4,000 -400 Level Cleveland Center
11:40AM 42.9775 -78.5172 13° North 261 300 3,200 -850 Descending Cleveland Center
11:41AM 43.0283 -78.5611 328° Northwest 218 251 2,300 -900 Descending Cleveland Center